sensor_id;sensor_type;location;lat;lon;timestamp;P1;durP1;ratioP1;P2;durP2;ratioP2
78668;SDS011;67984;45.118;20.724;2023-06-05T00:00:22;3.83;;;2.73;;
78668;SDS011;67984;45.118;20.724;2023-06-05T00:10:24;5.28;;;3.05;;
78668;SDS011;67984;45.118;20.724;2023-06-05T00:20:24;7.63;;;1.60;;
78668;SDS011;67984;45.118;20.724;2023-06-05T00:30:25;2.30;;;1.60;;
78668;SDS011;67984;45.118;20.724;2023-06-05T00:40:26;4.07;;;3.23;;
78668;SDS011;67984;45.118;20.724;2023-06-05T00:50:26;5.60;;;2.70;;
78668;SDS011;67984;45.118;20.724;2023-06-05T01:00:27;5.28;;;2.42;;
78668;SDS011;67984;45.118;20.724;2023-06-05T01:10:28;4.77;;;3.70;;
78668;SDS011;67984;45.118;20.724;2023-06-05T01:20:33;2.95;;;2.20;;
78668;SDS011;67984;45.118;20.724;2023-06-05T01:30:45;6.95;;;3.53;;
78668;SDS011;67984;45.118;20.724;2023-06-05T01:40:53;4.38;;;3.92;;
78668;SDS011;67984;45.118;20.724;2023-06-05T01:50:59;4.82;;;3.75;;
78668;SDS011;67984;45.118;20.724;2023-06-05T02:11:01;5.03;;;3.63;;
78668;SDS011;67984;45.118;20.724;2023-06-05T02:21:03;5.22;;;2.75;;
78668;SDS011;67984;45.118;20.724;2023-06-05T02:31:05;8.43;;;4.32;;
78668;SDS011;67984;45.118;20.724;2023-06-05T02:41:06;9.43;;;4.82;;
78668;SDS011;67984;45.118;20.724;2023-06-05T02:51:09;2.72;;;2.08;;
78668;SDS011;67984;45.118;20.724;2023-06-05T03:01:12;4.65;;;3.88;;
78668;SDS011;67984;45.118;20.724;2023-06-05T03:11:20;5.47;;;4.03;;
78668;SDS011;67984;45.118;20.724;2023-06-05T03:21:23;7.35;;;4.47;;
78668;SDS011;67984;45.118;20.724;2023-06-05T03:31:24;7.97;;;3.35;;
78668;SDS011;67984;45.118;20.724;2023-06-05T03:41:25;6.93;;;2.75;;
78668;SDS011;67984;45.118;20.724;2023-06-05T03:51:27;8.80;;;2.33;;
78668;SDS011;67984;45.118;20.724;2023-06-05T04:01:31;4.80;;;3.72;;
78668;SDS011;67984;45.118;20.724;2023-06-05T04:11:34;4.68;;;3.65;;
78668;SDS011;67984;45.118;20.724;2023-06-05T04:21:38;4.63;;;4.05;;
78668;SDS011;67984;45.118;20.724;2023-06-05T04:31:44;6.95;;;2.72;;
78668;SDS011;67984;45.118;20.724;2023-06-05T04:41:47;4.57;;;2.45;;
78668;SDS011;67984;45.118;20.724;2023-06-05T04:51:56;4.55;;;2.22;;
78668;SDS011;67984;45.118;20.724;2023-06-05T05:01:57;1.65;;;1.40;;
78668;SDS011;67984;45.118;20.724;2023-06-05T05:11:58;3.65;;;1.33;;
78668;SDS011;67984;45.118;20.724;2023-06-05T05:21:59;6.25;;;2.03;;
78668;SDS011;67984;45.118;20.724;2023-06-05T05:32:00;2.80;;;1.75;;
78668;SDS011;67984;45.118;20.724;2023-06-05T05:42:02;4.25;;;1.60;;
78668;SDS011;67984;45.118;20.724;2023-06-05T05:52:03;7.18;;;1.90;;
78668;SDS011;67984;45.118;20.724;2023-06-05T06:02:04;4.25;;;1.60;;
78668;SDS011;67984;45.118;20.724;2023-06-05T06:12:09;2.08;;;1.20;;
78668;SDS011;67984;45.118;20.724;2023-06-05T06:22:10;2.78;;;1.95;;
78668;SDS011;67984;45.118;20.724;2023-06-05T06:42:15;5.80;;;1.77;;
78668;SDS011;67984;45.118;20.724;2023-06-05T06:52:26;2.33;;;1.48;;
78668;SDS011;67984;45.118;20.724;2023-06-05T07:02:26;4.90;;;3.07;;
78668;SDS011;67984;45.118;20.724;2023-06-05T07:12:27;6.28;;;1.98;;
78668;SDS011;67984;45.118;20.724;2023-06-05T07:22:28;3.97;;;1.70;;
78668;SDS011;67984;45.118;20.724;2023-06-05T07:32:30;6.57;;;1.63;;
78668;SDS011;67984;45.118;20.724;2023-06-05T07:42:31;1.50;;;1.30;;
78668;SDS011;67984;45.118;20.724;2023-06-05T07:52:32;4.22;;;1.90;;
78668;SDS011;67984;45.118;20.724;2023-06-05T08:02:33;2.03;;;1.27;;
78668;SDS011;67984;45.118;20.724;2023-06-05T08:12:34;3.70;;;1.30;;
78668;SDS011;67984;45.118;20.724;2023-06-05T08:22:35;7.13;;;1.50;;
78668;SDS011;67984;45.118;20.724;2023-06-05T08:32:36;3.15;;;1.88;;
78668;SDS011;67984;45.118;20.724;2023-06-05T08:42:38;5.07;;;1.87;;
78668;SDS011;67984;45.118;20.724;2023-06-05T08:52:39;1.33;;;1.20;;
78668;SDS011;67984;45.118;20.724;2023-06-05T09:02:42;4.35;;;1.90;;
78668;SDS011;67984;45.118;20.724;2023-06-05T09:12:56;2.85;;;1.35;;
78668;SDS011;67984;45.118;20.724;2023-06-05T09:22:58;4.45;;;1.60;;
78668;SDS011;67984;45.118;20.724;2023-06-05T09:33:08;3.93;;;1.70;;
78668;SDS011;67984;45.118;20.724;2023-06-05T09:43:16;2.45;;;1.90;;
78668;SDS011;67984;45.118;20.724;2023-06-05T09:53:21;2.40;;;1.08;;
78668;SDS011;67984;45.118;20.724;2023-06-05T10:03:22;8.13;;;1.90;;
78668;SDS011;67984;45.118;20.724;2023-06-05T10:13:23;2.60;;;1.57;;
78668;SDS011;67984;45.118;20.724;2023-06-05T10:23:23;6.82;;;1.55;;
78668;SDS011;67984;45.118;20.724;2023-06-05T10:53:49;3.88;;;1.75;;
78668;SDS011;67984;45.118;20.724;2023-06-05T11:03:57;3.20;;;1.75;;
78668;SDS011;67984;45.118;20.724;2023-06-05T11:13:59;7.15;;;1.98;;
78668;SDS011;67984;45.118;20.724;2023-06-05T11:24:15;8.02;;;2.05;;
78668;SDS011;67984;45.118;20.724;2023-06-05T11:34:17;8.45;;;1.95;;
78668;SDS011;67984;45.118;20.724;2023-06-05T12:04:41;4.80;;;1.80;;
78668;SDS011;67984;45.118;20.724;2023-06-05T12:14:42;6.18;;;1.98;;
78668;SDS011;67984;45.118;20.724;2023-06-05T12:24:43;4.23;;;2.17;;
78668;SDS011;67984;45.118;20.724;2023-06-05T12:44:46;4.93;;;1.92;;
78668;SDS011;67984;45.118;20.724;2023-06-05T12:54:47;8.00;;;1.83;;
78668;SDS011;67984;45.118;20.724;2023-06-05T13:04:48;4.93;;;1.45;;
78668;SDS011;67984;45.118;20.724;2023-06-05T13:14:49;6.07;;;1.92;;
78668;SDS011;67984;45.118;20.724;2023-06-05T13:24:50;4.07;;;1.48;;
78668;SDS011;67984;45.118;20.724;2023-06-05T13:34:53;4.57;;;1.40;;
78668;SDS011;67984;45.118;20.724;2023-06-05T13:44:54;4.18;;;2.78;;
78668;SDS011;67984;45.118;20.724;2023-06-05T13:54:55;5.05;;;1.67;;
78668;SDS011;67984;45.118;20.724;2023-06-05T14:04:55;4.50;;;1.70;;
78668;SDS011;67984;45.118;20.724;2023-06-05T14:14:56;9.90;;;2.67;;
78668;SDS011;67984;45.118;20.724;2023-06-05T14:24:57;6.47;;;3.45;;
78668;SDS011;67984;45.118;20.724;2023-06-05T14:34:58;4.17;;;3.77;;
78668;SDS011;67984;45.118;20.724;2023-06-05T14:44:58;7.70;;;4.10;;
78668;SDS011;67984;45.118;20.724;2023-06-05T14:55:01;8.65;;;3.85;;
78668;SDS011;67984;45.118;20.724;2023-06-05T15:05:03;9.05;;;4.38;;
78668;SDS011;67984;45.118;20.724;2023-06-05T15:15:06;5.30;;;3.05;;
78668;SDS011;67984;45.118;20.724;2023-06-05T15:25:07;3.25;;;3.05;;
78668;SDS011;67984;45.118;20.724;2023-06-05T15:35:08;3.65;;;2.70;;
78668;SDS011;67984;45.118;20.724;2023-06-05T15:45:12;5.57;;;2.55;;
78668;SDS011;67984;45.118;20.724;2023-06-05T15:55:15;5.75;;;2.70;;
78668;SDS011;67984;45.118;20.724;2023-06-05T16:05:16;3.20;;;1.80;;
78668;SDS011;67984;45.118;20.724;2023-06-05T16:15:16;4.63;;;2.00;;
78668;SDS011;67984;45.118;20.724;2023-06-05T16:25:17;7.47;;;2.00;;
78668;SDS011;67984;45.118;20.724;2023-06-05T16:35:18;3.83;;;2.07;;
78668;SDS011;67984;45.118;20.724;2023-06-05T16:45:20;4.07;;;2.50;;
78668;SDS011;67984;45.118;20.724;2023-06-05T16:55:22;6.07;;;3.42;;
78668;SDS011;67984;45.118;20.724;2023-06-05T17:05:23;4.10;;;2.47;;
78668;SDS011;67984;45.118;20.724;2023-06-05T17:15:24;3.63;;;2.85;;
78668;SDS011;67984;45.118;20.724;2023-06-05T17:25:25;7.05;;;2.95;;
78668;SDS011;67984;45.118;20.724;2023-06-05T17:35:26;16.75;;;7.22;;
78668;SDS011;67984;45.118;20.724;2023-06-05T17:45:27;5.18;;;2.72;;
78668;SDS011;67984;45.118;20.724;2023-06-05T17:55:28;5.13;;;2.70;;
78668;SDS011;67984;45.118;20.724;2023-06-05T18:05:29;5.97;;;2.53;;
78668;SDS011;67984;45.118;20.724;2023-06-05T18:15:29;4.80;;;3.10;;
78668;SDS011;67984;45.118;20.724;2023-06-05T18:25:30;8.07;;;3.30;;
78668;SDS011;67984;45.118;20.724;2023-06-05T18:35:31;7.53;;;3.27;;
78668;SDS011;67984;45.118;20.724;2023-06-05T18:45:32;9.57;;;3.40;;
78668;SDS011;67984;45.118;20.724;2023-06-05T18:55:35;5.32;;;3.25;;
78668;SDS011;67984;45.118;20.724;2023-06-05T19:05:36;7.53;;;4.37;;
78668;SDS011;67984;45.118;20.724;2023-06-05T19:15:38;5.22;;;3.28;;
78668;SDS011;67984;45.118;20.724;2023-06-05T19:25:38;7.20;;;4.37;;
78668;SDS011;67984;45.118;20.724;2023-06-05T19:35:39;12.68;;;3.92;;
78668;SDS011;67984;45.118;20.724;2023-06-05T19:45:40;5.00;;;3.42;;
78668;SDS011;67984;45.118;20.724;2023-06-05T19:55:41;8.90;;;3.30;;
78668;SDS011;67984;45.118;20.724;2023-06-05T20:05:42;8.67;;;4.33;;
78668;SDS011;67984;45.118;20.724;2023-06-05T20:15:43;6.10;;;4.10;;
78668;SDS011;67984;45.118;20.724;2023-06-05T20:25:43;6.60;;;3.40;;
78668;SDS011;67984;45.118;20.724;2023-06-05T20:35:45;14.93;;;3.15;;
78668;SDS011;67984;45.118;20.724;2023-06-05T20:45:47;7.40;;;3.10;;
78668;SDS011;67984;45.118;20.724;2023-06-05T20:55:48;5.15;;;2.55;;
78668;SDS011;67984;45.118;20.724;2023-06-05T21:05:49;7.10;;;2.80;;
78668;SDS011;67984;45.118;20.724;2023-06-05T21:15:50;5.50;;;2.88;;
78668;SDS011;67984;45.118;20.724;2023-06-05T21:25:50;7.27;;;2.97;;
78668;SDS011;67984;45.118;20.724;2023-06-05T21:35:51;5.73;;;4.00;;
78668;SDS011;67984;45.118;20.724;2023-06-05T21:45:52;7.87;;;2.60;;
78668;SDS011;67984;45.118;20.724;2023-06-05T21:55:52;5.23;;;2.67;;
78668;SDS011;67984;45.118;20.724;2023-06-05T22:05:53;6.30;;;2.60;;
78668;SDS011;67984;45.118;20.724;2023-06-05T22:15:57;7.55;;;3.58;;
78668;SDS011;67984;45.118;20.724;2023-06-05T22:26:00;4.82;;;3.20;;
78668;SDS011;67984;45.118;20.724;2023-06-05T22:36:01;10.90;;;3.07;;
78668;SDS011;67984;45.118;20.724;2023-06-05T22:46:03;8.48;;;3.17;;
78668;SDS011;67984;45.118;20.724;2023-06-05T22:56:04;6.70;;;3.08;;
78668;SDS011;67984;45.118;20.724;2023-06-05T23:06:05;8.18;;;3.20;;
78668;SDS011;67984;45.118;20.724;2023-06-05T23:16:06;7.32;;;2.42;;
78668;SDS011;67984;45.118;20.724;2023-06-05T23:26:07;7.65;;;2.65;;
78668;SDS011;67984;45.118;20.724;2023-06-05T23:36:07;7.32;;;2.30;;
78668;SDS011;67984;45.118;20.724;2023-06-05T23:46:11;6.32;;;2.42;;
78668;SDS011;67984;45.118;20.724;2023-06-05T23:56:11;9.50;;;2.80;;
